Time;durP1;ratioP1;P1;durP2;ratioP2;P2;SDS_P1;SDS_P2;PMS_P1;PMS_P2;Temp;Humidity;BMP_temperature;BMP_pressure;BME280_temperature;BME280_humidity;BME280_pressure;Samples;Min_cycle;Max_cycle;Signal;HPM_P1;HPM_P2
2021/10/22 00:01:27;;;;;;;;;;;20.60;51.90;;;;;;494972;239;2167;-47
2021/10/22 00:03:29;;;;;;;;;;;20.60;51.80;;;;;;494790;239;1045;-47
2021/10/22 00:05:32;;;;;;;;;;;20.60;51.80;;;;;;494804;239;1053;-47
2021/10/22 00:07:31;;;;;;;;;;;20.50;51.80;;;;;;494689;241;2280;-46
2021/10/22 00:09:33;;;;;;;;;;;20.60;51.90;;;;;;495071;239;1066;-47
2021/10/22 00:11:36;;;;;;;;;;;20.60;51.80;;;;;;494883;239;1031;-47
2021/10/22 00:13:36;;;;;;;;;;;20.60;51.70;;;;;;494726;239;2332;-47
2021/10/22 00:15:37;;;;;;;;;;;20.60;51.70;;;;;;494784;239;1283;-47
2021/10/22 00:17:39;;;;;;;;;;;20.60;51.70;;;;;;494888;239;1098;-47
2021/10/22 00:19:40;;;;;;;;;;;20.60;51.80;;;;;;495074;239;1088;-47
2021/10/22 00:21:41;;;;;;;;;;;20.50;51.80;;;;;;494662;239;2143;-47
2021/10/22 00:23:43;;;;;;;;;;;20.60;51.90;;;;;;494785;239;1065;-47
2021/10/22 00:25:45;;;;;;;;;;;20.60;51.80;;;;;;494738;239;1177;-46
2021/10/22 00:27:46;;;;;;;;;;;20.50;51.80;;;;;;494831;239;1345;-46
2021/10/22 00:29:47;;;;;;;;;;;20.50;51.80;;;;;;495246;239;1064;-46
2021/10/22 00:31:48;;;;;;;;;;;20.50;51.80;;;;;;494844;239;1364;-47
2021/10/22 00:33:50;;;;;;;;;;;20.60;51.80;;;;;;494753;239;1244;-46
2021/10/22 00:35:51;;;;;;;;;;;20.60;51.80;;;;;;494809;239;1289;-47
2021/10/22 00:37:52;;;;;;;;;;;20.60;51.90;;;;;;494890;239;1158;-47
2021/10/22 00:39:54;;;;;;;;;;;20.60;51.80;;;;;;494808;239;972;-47
2021/10/22 00:41:55;;;;;;;;;;;20.60;51.90;;;;;;494691;239;2120;-47
2021/10/22 00:43:56;;;;;;;;;;;20.50;51.90;;;;;;494758;239;1034;-47
2021/10/22 00:45:58;;;;;;;;;;;20.50;51.90;;;;;;495128;239;1175;-47
2021/10/22 00:47:59;;;;;;;;;;;20.60;51.80;;;;;;494838;239;1256;-47
2021/10/22 00:50:00;;;;;;;;;;;20.60;51.80;;;;;;494808;239;1077;-47
2021/10/22 00:52:02;;;;;;;;;;;20.60;51.90;;;;;;494875;239;1477;-47
2021/10/22 00:54:03;;;;;;;;;;;20.60;51.90;;;;;;494730;239;1043;-47
2021/10/22 00:56:04;;;;;;;;;;;20.50;51.90;;;;;;494728;239;1088;-47
2021/10/22 00:58:06;;;;;;;;;;;20.50;51.80;;;;;;494669;239;1106;-47
2021/10/22 01:00:07;;;;;;;;;;;20.60;51.80;;;;;;494757;239;1252;-47
2021/10/22 01:02:08;;;;;;;;;;;20.50;51.80;;;;;;494693;239;2195;-47
2021/10/22 01:04:10;;;;;;;;;;;20.60;51.80;;;;;;494798;239;1183;-47
2021/10/22 01:06:11;;;;;;;;;;;20.50;51.80;;;;;;494798;239;1205;-47
2021/10/22 01:08:12;;;;;;;;;;;20.60;51.80;;;;;;494699;239;1212;-47
2021/10/22 01:10:14;;;;;;;;;;;20.60;51.80;;;;;;495123;239;1044;-47
2021/10/22 01:12:15;;;;;;;;;;;20.60;51.90;;;;;;494721;239;1087;-47
2021/10/22 01:14:16;;;;;;;;;;;20.60;51.90;;;;;;494761;239;1210;-46
2021/10/22 01:16:18;;;;;;;;;;;20.60;51.90;;;;;;494728;239;1153;-47
2021/10/22 01:18:19;;;;;;;;;;;20.60;51.80;;;;;;494750;239;1229;-47
2021/10/22 01:20:21;;;;;;;;;;;20.50;51.70;;;;;;495041;239;1070;-47
2021/10/22 01:22:22;;;;;;;;;;;20.60;51.80;;;;;;495037;239;2190;-47
2021/10/22 01:24:24;;;;;;;;;;;20.50;51.70;;;;;;494790;239;1046;-47
2021/10/22 01:26:25;;;;;;;;;;;20.50;51.80;;;;;;494787;241;2205;-47
2021/10/22 01:28:27;;;;;;;;;;;20.60;51.80;;;;;;495215;239;1091;-47
2021/10/22 01:30:27;;;;;;;;;;;20.60;51.80;;;;;;495182;239;2434;-47
2021/10/22 01:32:30;;;;;;;;;;;20.60;51.80;;;;;;494909;239;1177;-47
2021/10/22 01:34:30;;;;;;;;;;;20.60;51.80;;;;;;494717;241;2101;-47
2021/10/22 01:36:33;;;;;;;;;;;20.60;51.80;;;;;;494728;239;1338;-47
2021/10/22 01:38:33;;;;;;;;;;;20.60;51.80;;;;;;494911;241;1979;-47
2021/10/22 01:40:34;;;;;;;;;;;20.60;51.80;;;;;;494895;239;1025;-47
2021/10/22 01:42:36;;;;;;;;;;;20.50;51.80;;;;;;494746;239;2195;-47
2021/10/22 01:44:37;;;;;;;;;;;20.50;51.80;;;;;;495273;239;1053;-47
2021/10/22 01:46:38;;;;;;;;;;;20.50;51.90;;;;;;495240;239;1129;-47
2021/10/22 01:48:40;;;;;;;;;;;20.60;51.90;;;;;;494801;239;1209;-47
2021/10/22 01:50:41;;;;;;;;;;;20.60;51.80;;;;;;494770;239;2256;-47
2021/10/22 01:52:43;;;;;;;;;;;20.60;51.80;;;;;;494867;239;1178;-46
2021/10/22 01:54:44;;;;;;;;;;;20.60;51.80;;;;;;494792;239;1078;-47
2021/10/22 01:56:45;;;;;;;;;;;20.50;51.80;;;;;;494741;239;1151;-47
2021/10/22 01:58:46;;;;;;;;;;;20.60;51.80;;;;;;494712;239;1140;-47
2021/10/22 02:00:48;;;;;;;;;;;20.60;51.80;;;;;;495063;239;1340;-47
2021/10/22 02:02:49;;;;;;;;;;;20.60;51.80;;;;;;494724;239;2214;-47
2021/10/22 02:04:50;;;;;;;;;;;20.60;51.80;;;;;;495227;239;983;-47
2021/10/22 02:06:52;;;;;;;;;;;20.60;51.70;;;;;;495135;239;1043;-47
2021/10/22 02:08:53;;;;;;;;;;;20.60;51.80;;;;;;495266;239;1062;-47
2021/10/22 02:10:54;;;;;;;;;;;20.60;51.80;;;;;;494938;239;1324;-47
2021/10/22 02:12:55;;;;;;;;;;;20.60;51.80;;;;;;494939;239;1326;-47
2021/10/22 02:14:57;;;;;;;;;;;20.60;51.70;;;;;;494746;239;1040;-47
2021/10/22 02:16:58;;;;;;;;;;;20.60;51.80;;;;;;494951;239;1232;-47
2021/10/22 02:19:00;;;;;;;;;;;20.60;51.80;;;;;;494867;239;1138;-46
2021/10/22 02:21:01;;;;;;;;;;;20.60;51.80;;;;;;494784;239;1302;-47
2021/10/22 02:23:02;;;;;;;;;;;20.60;51.70;;;;;;494813;239;2183;-47
2021/10/22 02:25:03;;;;;;;;;;;20.60;51.70;;;;;;494865;239;1046;-47
2021/10/22 02:27:05;;;;;;;;;;;20.60;51.70;;;;;;494675;239;1340;-47
2021/10/22 02:29:06;;;;;;;;;;;20.60;51.70;;;;;;494778;239;1169;-47
2021/10/22 02:31:08;;;;;;;;;;;20.60;51.70;;;;;;494743;239;1283;-47
2021/10/22 02:33:09;;;;;;;;;;;20.60;51.70;;;;;;494741;239;1263;-47
2021/10/22 02:35:10;;;;;;;;;;;20.60;51.80;;;;;;494854;239;1064;-47
2021/10/22 02:37:12;;;;;;;;;;;20.60;51.90;;;;;;494721;239;1151;-47
2021/10/22 02:39:13;;;;;;;;;;;20.60;51.80;;;;;;494949;239;1055;-47
2021/10/22 02:41:15;;;;;;;;;;;20.60;51.90;;;;;;494833;239;1138;-47
2021/10/22 02:43:16;;;;;;;;;;;20.60;51.70;;;;;;494809;239;2186;-47
2021/10/22 02:45:17;;;;;;;;;;;20.70;51.70;;;;;;494943;239;1199;-47
2021/10/22 02:47:19;;;;;;;;;;;20.70;51.70;;;;;;494730;239;1164;-47
2021/10/22 02:49:20;;;;;;;;;;;20.60;51.70;;;;;;494950;239;1130;-47
2021/10/22 02:51:21;;;;;;;;;;;20.60;51.80;;;;;;495067;239;1151;-47
2021/10/22 02:53:23;;;;;;;;;;;20.60;51.80;;;;;;494886;239;1189;-47
2021/10/22 02:55:24;;;;;;;;;;;20.60;51.80;;;;;;495147;239;1143;-47
2021/10/22 02:57:25;;;;;;;;;;;20.60;51.80;;;;;;494824;239;1221;-47
2021/10/22 02:59:27;;;;;;;;;;;20.60;51.80;;;;;;494701;239;1091;-47
2021/10/22 03:01:28;;;;;;;;;;;20.60;51.80;;;;;;494771;239;1202;-47
2021/10/22 03:03:29;;;;;;;;;;;20.60;51.80;;;;;;494954;239;2118;-47
2021/10/22 03:05:31;;;;;;;;;;;20.60;51.80;;;;;;494796;239;1151;-47
2021/10/22 03:07:32;;;;;;;;;;;20.60;51.80;;;;;;494741;239;1464;-47
2021/10/22 03:09:35;;;;;;;;;;;20.60;51.80;;;;;;494796;239;1117;-47
2021/10/22 03:11:35;;;;;;;;;;;20.60;51.80;;;;;;494647;241;2868;-47
2021/10/22 03:13:37;;;;;;;;;;;20.60;51.80;;;;;;494741;239;1053;-47
2021/10/22 03:15:37;;;;;;;;;;;20.60;51.90;;;;;;494953;239;2314;-47
2021/10/22 03:17:39;;;;;;;;;;;20.60;51.90;;;;;;495034;239;1193;-47
2021/10/22 03:19:40;;;;;;;;;;;20.60;51.80;;;;;;494850;239;1178;-47
2021/10/22 03:21:41;;;;;;;;;;;20.60;51.90;;;;;;494927;239;1289;-47
2021/10/22 03:23:42;;;;;;;;;;;20.60;51.80;;;;;;494757;239;2190;-47
2021/10/22 03:25:44;;;;;;;;;;;20.60;51.70;;;;;;494751;239;1214;-47
2021/10/22 03:27:47;;;;;;;;;;;20.60;51.80;;;;;;494633;239;1133;-47
2021/10/22 03:29:46;;;;;;;;;;;20.60;51.80;;;;;;494608;241;2184;-47
2021/10/22 03:31:48;;;;;;;;;;;20.60;51.80;;;;;;494680;239;1283;-47
2021/10/22 03:33:49;;;;;;;;;;;20.60;51.70;;;;;;495069;239;1171;-47
2021/10/22 03:35:50;;;;;;;;;;;20.60;51.70;;;;;;495032;239;1063;-47
2021/10/22 03:37:52;;;;;;;;;;;20.60;51.80;;;;;;494872;239;1239;-47
2021/10/22 03:39:53;;;;;;;;;;;20.60;51.80;;;;;;494807;239;1132;-47
2021/10/22 03:41:54;;;;;;;;;;;20.60;51.80;;;;;;494786;239;1221;-47
2021/10/22 03:43:56;;;;;;;;;;;20.60;51.80;;;;;;494705;239;2111;-47
2021/10/22 03:45:57;;;;;;;;;;;20.60;51.70;;;;;;495101;239;1127;-47
2021/10/22 03:47:58;;;;;;;;;;;20.60;51.70;;;;;;495197;239;1234;-47
2021/10/22 03:50:00;;;;;;;;;;;20.60;51.70;;;;;;494922;239;1214;-47
2021/10/22 03:52:01;;;;;;;;;;;20.60;51.80;;;;;;494701;239;1174;-47
2021/10/22 03:54:03;;;;;;;;;;;20.60;51.80;;;;;;495103;239;1065;-47
2021/10/22 03:56:04;;;;;;;;;;;20.60;51.80;;;;;;495169;239;1150;-47
2021/10/22 03:58:05;;;;;;;;;;;20.60;51.80;;;;;;494851;239;1122;-47
2021/10/22 04:00:07;;;;;;;;;;;20.60;51.70;;;;;;495140;239;1061;-47
2021/10/22 04:02:08;;;;;;;;;;;20.60;51.70;;;;;;494878;239;1057;-47
2021/10/22 04:04:09;;;;;;;;;;;20.60;51.80;;;;;;494773;239;2182;-47
2021/10/22 04:06:11;;;;;;;;;;;20.60;51.80;;;;;;494728;239;1461;-47
2021/10/22 04:08:12;;;;;;;;;;;20.60;51.80;;;;;;494915;239;1048;-47
2021/10/22 04:10:13;;;;;;;;;;;20.60;51.80;;;;;;494764;239;1066;-46
2021/10/22 04:12:15;;;;;;;;;;;20.60;51.90;;;;;;494759;239;1199;-47
2021/10/22 04:14:16;;;;;;;;;;;20.60;51.90;;;;;;494690;239;1149;-47
2021/10/22 04:16:17;;;;;;;;;;;20.60;51.80;;;;;;494766;239;1330;-47
2021/10/22 04:18:19;;;;;;;;;;;20.60;51.80;;;;;;494797;239;1085;-47
2021/10/22 04:20:20;;;;;;;;;;;20.60;51.80;;;;;;494667;239;1371;-47
2021/10/22 04:22:21;;;;;;;;;;;20.60;51.80;;;;;;494873;239;1073;-47
2021/10/22 04:24:23;;;;;;;;;;;20.60;51.80;;;;;;495006;239;2107;-47
2021/10/22 04:26:24;;;;;;;;;;;20.60;51.80;;;;;;494647;241;2382;-47
2021/10/22 04:28:26;;;;;;;;;;;20.60;51.80;;;;;;494749;239;1082;-47
2021/10/22 04:30:27;;;;;;;;;;;20.60;51.80;;;;;;494540;239;2341;-47
2021/10/22 04:32:28;;;;;;;;;;;20.60;51.80;;;;;;494846;239;1147;-47
2021/10/22 04:34:29;;;;;;;;;;;20.60;51.70;;;;;;494830;239;1185;-47
2021/10/22 04:36:31;;;;;;;;;;;20.60;51.80;;;;;;494546;239;1116;-47
2021/10/22 04:40:52;;;;;;;;;;;20.60;51.80;;;;;;494627;241;1343;-47
2021/10/22 04:42:53;;;;;;;;;;;20.60;51.80;;;;;;494741;239;2167;-47
2021/10/22 04:44:54;;;;;;;;;;;20.60;51.80;;;;;;494928;239;1048;-47
2021/10/22 04:46:56;;;;;;;;;;;20.60;51.90;;;;;;494580;239;1203;-47
2021/10/22 04:48:57;;;;;;;;;;;20.60;51.80;;;;;;494854;239;1065;-47
2021/10/22 04:50:58;;;;;;;;;;;20.60;51.80;;;;;;494662;239;1300;-47
2021/10/22 04:53:00;;;;;;;;;;;20.60;51.70;;;;;;494663;239;1202;-47
2021/10/22 04:55:01;;;;;;;;;;;20.60;51.80;;;;;;494677;239;1055;-47
2021/10/22 04:57:02;;;;;;;;;;;20.60;51.80;;;;;;494518;239;1691;-47
2021/10/22 04:59:04;;;;;;;;;;;20.60;51.70;;;;;;494729;239;1099;-47
2021/10/22 05:01:05;;;;;;;;;;;20.60;51.70;;;;;;494577;239;1327;-46
2021/10/22 05:03:06;;;;;;;;;;;20.60;51.80;;;;;;494874;239;2128;-47
2021/10/22 05:05:08;;;;;;;;;;;20.60;51.80;;;;;;494507;239;1121;-47
2021/10/22 05:07:09;;;;;;;;;;;20.60;51.70;;;;;;494638;239;1342;-47
2021/10/22 05:09:10;;;;;;;;;;;20.60;51.70;;;;;;494621;239;1098;-47
2021/10/22 05:11:12;;;;;;;;;;;20.60;51.70;;;;;;494589;239;1474;-47
2021/10/22 05:13:13;;;;;;;;;;;20.70;51.70;;;;;;494670;239;1065;-47
2021/10/22 05:15:14;;;;;;;;;;;20.60;51.60;;;;;;494515;239;1079;-47
2021/10/22 05:17:15;;;;;;;;;;;20.60;51.70;;;;;;494409;241;1315;-47
2021/10/22 05:19:17;;;;;;;;;;;20.60;51.80;;;;;;494463;239;1066;-47
2021/10/22 05:21:18;;;;;;;;;;;20.60;51.80;;;;;;494471;239;1179;-46
2021/10/22 05:23:20;;;;;;;;;;;20.60;51.80;;;;;;494351;239;2186;-47
2021/10/22 05:25:21;;;;;;;;;;;20.60;51.80;;;;;;494321;239;1230;-47
2021/10/22 05:27:22;;;;;;;;;;;20.70;51.80;;;;;;494497;239;1498;-47
2021/10/22 05:29:23;;;;;;;;;;;20.60;51.70;;;;;;494427;239;1264;-47
2021/10/22 05:31:25;;;;;;;;;;;20.60;51.80;;;;;;494374;239;1146;-47
2021/10/22 05:33:26;;;;;;;;;;;20.60;51.80;;;;;;494351;239;1241;-46
2021/10/22 05:35:27;;;;;;;;;;;20.60;51.70;;;;;;494496;239;1212;-47
2021/10/22 05:37:29;;;;;;;;;;;20.60;51.80;;;;;;494536;239;1431;-47
2021/10/22 05:39:30;;;;;;;;;;;20.60;51.80;;;;;;494834;239;1089;-47
2021/10/22 05:41:31;;;;;;;;;;;20.60;51.70;;;;;;494462;239;1215;-47
2021/10/22 05:43:33;;;;;;;;;;;20.60;51.80;;;;;;494151;239;2175;-47
2021/10/22 05:45:34;;;;;;;;;;;20.60;51.80;;;;;;494173;239;1001;-46
2021/10/22 05:47:36;;;;;;;;;;;20.60;51.80;;;;;;494274;239;1357;-47
2021/10/22 05:49:37;;;;;;;;;;;20.60;51.80;;;;;;494372;239;1116;-47
2021/10/22 05:51:38;;;;;;;;;;;20.60;51.80;;;;;;494296;239;1273;-47
2021/10/22 05:53:39;;;;;;;;;;;20.60;51.90;;;;;;494386;239;1076;-47
2021/10/22 05:55:41;;;;;;;;;;;20.60;51.80;;;;;;494440;239;1073;-47
2021/10/22 05:57:42;;;;;;;;;;;20.60;51.80;;;;;;494396;239;1180;-47
2021/10/22 05:59:43;;;;;;;;;;;20.60;51.80;;;;;;494402;239;1337;-47
2021/10/22 06:01:45;;;;;;;;;;;20.60;51.70;;;;;;494244;239;1344;-47
2021/10/22 06:03:46;;;;;;;;;;;20.60;51.70;;;;;;494171;239;2175;-47
2021/10/22 06:05:52;;;;;;;;;;;20.60;51.70;;;;;;494292;239;1421;-47
2021/10/22 06:07:49;;;;;;;;;;;20.60;51.70;;;;;;494164;241;2169;-47
2021/10/22 06:09:51;;;;;;;;;;;20.60;51.70;;;;;;494364;239;1059;-47
2021/10/22 06:11:52;;;;;;;;;;;20.60;51.70;;;;;;494195;239;1348;-47
2021/10/22 06:13:53;;;;;;;;;;;20.70;51.70;;;;;;494123;239;1316;-46
2021/10/22 06:15:55;;;;;;;;;;;20.60;51.70;;;;;;494280;239;1385;-47
2021/10/22 06:17:56;;;;;;;;;;;20.60;51.80;;;;;;494244;239;1171;-47
2021/10/22 06:20:01;;;;;;;;;;;20.60;51.80;;;;;;494212;239;1098;-47
2021/10/22 06:22:15;;;;;;;;;;;20.60;51.90;;;;;;493979;241;2429;-47
2021/10/22 06:24:11;;;;;;;;;;;20.60;51.80;;;;;;493727;241;2190;-47
2021/10/22 06:26:12;;;;;;;;;;;20.60;51.80;;;;;;494012;239;1240;-47
2021/10/22 06:28:14;;;;;;;;;;;20.60;51.80;;;;;;493944;239;1218;-47
2021/10/22 06:30:15;;;;;;;;;;;20.60;51.80;;;;;;493842;239;1211;-47
2021/10/22 06:32:16;;;;;;;;;;;20.60;51.70;;;;;;493841;239;1300;-47
2021/10/22 06:34:21;;;;;;;;;;;20.60;51.70;;;;;;493836;239;1085;-47
2021/10/22 06:36:19;;;;;;;;;;;20.60;51.80;;;;;;493864;241;1943;-47
2021/10/22 06:38:21;;;;;;;;;;;20.60;51.80;;;;;;494295;239;1123;-47
2021/10/22 06:40:23;;;;;;;;;;;20.60;51.80;;;;;;494089;239;1052;-47
2021/10/22 06:42:23;;;;;;;;;;;20.60;51.70;;;;;;494157;241;1349;-47
2021/10/22 06:44:27;;;;;;;;;;;20.60;51.80;;;;;;494111;239;2187;-47
2021/10/22 06:46:26;;;;;;;;;;;20.60;51.70;;;;;;493778;239;1720;-47
2021/10/22 06:48:27;;;;;;;;;;;20.60;51.80;;;;;;493856;239;1152;-47
2021/10/22 06:50:28;;;;;;;;;;;20.60;51.70;;;;;;493817;239;1523;-47
2021/10/22 06:52:30;;;;;;;;;;;20.60;51.80;;;;;;493783;239;1159;-47
2021/10/22 06:54:31;;;;;;;;;;;20.60;51.80;;;;;;493970;239;1203;-47
2021/10/22 06:56:32;;;;;;;;;;;20.60;51.80;;;;;;493930;239;1329;-47
2021/10/22 06:58:34;;;;;;;;;;;20.60;51.70;;;;;;493958;239;1154;-47
2021/10/22 07:00:35;;;;;;;;;;;20.60;51.70;;;;;;493923;241;1337;-47
2021/10/22 07:02:40;;;;;;;;;;;20.60;51.80;;;;;;493784;239;1180;-47
2021/10/22 07:04:46;;;;;;;;;;;20.60;51.80;;;;;;493730;239;2171;-47
2021/10/22 07:08:58;;;;;;;;;;;20.60;51.70;;;;;;493875;241;1082;-47
2021/10/22 07:11:00;;;;;;;;;;;20.60;51.80;;;;;;493800;239;1295;-47
2021/10/22 07:13:01;;;;;;;;;;;20.60;51.80;;;;;;493700;239;1203;-47
2021/10/22 07:15:05;;;;;;;;;;;20.70;51.80;;;;;;493761;239;1112;-46
2021/10/22 07:17:04;;;;;;;;;;;20.70;51.70;;;;;;493611;241;2503;-47
2021/10/22 07:19:05;;;;;;;;;;;20.60;51.70;;;;;;493860;239;1113;-47
2021/10/22 07:21:06;;;;;;;;;;;20.60;51.80;;;;;;493876;239;1161;-47
2021/10/22 07:23:10;;;;;;;;;;;20.60;51.80;;;;;;493896;239;1217;-47
2021/10/22 07:25:09;;;;;;;;;;;20.60;51.80;;;;;;493650;241;2179;-47
2021/10/22 07:27:10;;;;;;;;;;;20.60;51.70;;;;;;493677;239;1164;-47
2021/10/22 07:29:12;;;;;;;;;;;20.60;51.70;;;;;;493646;239;1257;-47
2021/10/22 07:31:13;;;;;;;;;;;20.60;51.80;;;;;;493539;239;1318;-47
2021/10/22 07:33:15;;;;;;;;;;;20.60;51.80;;;;;;494522;239;1381;-47
2021/10/22 07:35:16;;;;;;;;;;;20.60;51.80;;;;;;494156;239;864;-46
2021/10/22 07:37:17;;;;;;;;;;;20.60;51.80;;;;;;494279;239;1190;-46
2021/10/22 07:39:19;;;;;;;;;;;20.60;51.80;;;;;;494486;239;1235;-47
2021/10/22 07:41:21;;;;;;;;;;;20.70;51.80;;;;;;494072;239;1317;-47
2021/10/22 07:43:21;;;;;;;;;;;20.60;51.70;;;;;;493787;239;1476;-47
2021/10/22 07:45:23;;;;;;;;;;;20.60;51.70;;;;;;493845;239;2187;-45
2021/10/22 07:47:24;;;;;;;;;;;20.60;51.80;;;;;;493783;239;1178;-45
2021/10/22 07:49:25;;;;;;;;;;;20.60;51.80;;;;;;493584;239;1086;-46
2021/10/22 07:51:27;;;;;;;;;;;20.60;51.80;;;;;;493601;239;1216;-46
2021/10/22 07:53:28;;;;;;;;;;;20.60;51.80;;;;;;493808;239;1314;-46
2021/10/22 07:55:29;;;;;;;;;;;20.60;51.80;;;;;;493829;239;1076;-46
2021/10/22 07:57:32;;;;;;;;;;;20.60;51.80;;;;;;493502;239;1326;-46
2021/10/22 07:59:32;;;;;;;;;;;20.60;51.70;;;;;;493430;239;2229;-46
2021/10/22 08:01:33;;;;;;;;;;;20.60;51.70;;;;;;493538;239;1191;-46
2021/10/22 08:03:35;;;;;;;;;;;20.60;51.70;;;;;;493615;239;1086;-46
2021/10/22 08:05:36;;;;;;;;;;;20.60;51.80;;;;;;493506;241;2194;-46
2021/10/22 08:07:38;;;;;;;;;;;20.60;51.80;;;;;;493708;239;1194;-46
2021/10/22 08:09:39;;;;;;;;;;;20.60;51.80;;;;;;493778;239;2092;-46
2021/10/22 08:11:40;;;;;;;;;;;20.60;51.80;;;;;;493729;239;1300;-46
2021/10/22 08:13:42;;;;;;;;;;;20.60;51.80;;;;;;493726;239;1354;-46
2021/10/22 08:15:43;;;;;;;;;;;20.60;51.80;;;;;;493773;239;1333;-46
2021/10/22 08:17:44;;;;;;;;;;;20.60;51.90;;;;;;493512;239;1148;-46
2021/10/22 08:19:51;;;;;;;;;;;20.60;51.80;;;;;;493544;239;1081;-46
2021/10/22 08:22:25;;;;;;;;;;;20.60;51.90;;;;;;493257;241;2170;-45
2021/10/22 08:23:59;;;;;;;;;;;20.60;51.80;;;;;;492185;241;2182;-46
2021/10/22 08:26:01;;;;;;;;;;;20.60;51.70;;;;;;493632;239;1191;-46
2021/10/22 08:28:02;;;;;;;;;;;20.60;51.80;;;;;;493673;239;1272;-46
2021/10/22 08:30:03;;;;;;;;;;;20.70;51.70;;;;;;493524;239;1200;-46
2021/10/22 08:32:05;;;;;;;;;;;20.70;51.80;;;;;;493682;239;1355;-45
2021/10/22 08:34:06;;;;;;;;;;;20.60;51.70;;;;;;493808;239;1172;-46
2021/10/22 08:36:07;;;;;;;;;;;20.60;51.80;;;;;;493811;239;1113;-46
2021/10/22 08:38:09;;;;;;;;;;;20.60;51.70;;;;;;493973;239;1176;-46
2021/10/22 08:40:11;;;;;;;;;;;20.60;51.80;;;;;;493833;239;2051;-46
2021/10/22 08:42:11;;;;;;;;;;;20.60;51.80;;;;;;493584;241;2070;-46
2021/10/22 08:44:13;;;;;;;;;;;20.60;51.80;;;;;;493612;239;2194;-46
2021/10/22 08:46:14;;;;;;;;;;;20.60;51.80;;;;;;493724;239;1323;-46
2021/10/22 08:48:15;;;;;;;;;;;20.60;51.80;;;;;;493806;239;1223;-46
2021/10/22 08:50:16;;;;;;;;;;;20.60;51.80;;;;;;493918;239;1116;-46
2021/10/22 08:52:18;;;;;;;;;;;20.60;51.80;;;;;;493709;239;1212;-47
2021/10/22 08:54:20;;;;;;;;;;;20.60;51.70;;;;;;493708;239;1203;-47
2021/10/22 08:56:21;;;;;;;;;;;20.60;51.70;;;;;;494133;239;2259;-46
2021/10/22 08:58:22;;;;;;;;;;;20.60;51.70;;;;;;494035;239;2356;-46
2021/10/22 09:00:24;;;;;;;;;;;20.60;51.70;;;;;;494376;239;878;-47
2021/10/22 09:02:25;;;;;;;;;;;20.60;51.80;;;;;;493683;239;2005;-46
2021/10/22 09:04:26;;;;;;;;;;;20.60;51.70;;;;;;493916;239;2178;-47
2021/10/22 09:06:28;;;;;;;;;;;20.60;51.70;;;;;;494436;239;1283;-46
2021/10/22 09:08:29;;;;;;;;;;;20.60;51.70;;;;;;493936;239;1131;-46
2021/10/22 09:10:33;;;;;;;;;;;20.60;51.80;;;;;;493665;239;1075;-46
2021/10/22 09:12:32;;;;;;;;;;;20.60;51.70;;;;;;494475;241;2459;-46
2021/10/22 09:14:34;;;;;;;;;;;20.60;51.80;;;;;;494488;239;922;-45
2021/10/22 09:16:35;;;;;;;;;;;20.60;51.70;;;;;;494428;239;2367;-47
2021/10/22 09:18:36;;;;;;;;;;;20.60;51.70;;;;;;494569;239;1123;-47
2021/10/22 09:20:37;;;;;;;;;;;20.60;51.70;;;;;;494599;239;1221;-47
2021/10/22 09:22:39;;;;;;;;;;;20.60;51.70;;;;;;494308;239;1025;-46
2021/10/22 09:24:40;;;;;;;;;;;20.60;51.60;;;;;;494339;239;2187;-45
2021/10/22 09:26:41;;;;;;;;;;;20.60;51.70;;;;;;494108;239;1482;-46
2021/10/22 09:28:43;;;;;;;;;;;20.60;51.70;;;;;;494248;239;1136;-46
2021/10/22 09:30:45;;;;;;;;;;;20.60;51.70;;;;;;494374;239;1315;-46
2021/10/22 09:32:46;;;;;;;;;;;20.60;51.70;;;;;;493951;241;2103;-46
2021/10/22 09:34:47;;;;;;;;;;;20.60;51.70;;;;;;494541;239;1816;-46
2021/10/22 09:36:48;;;;;;;;;;;20.70;51.70;;;;;;493880;239;1258;-46
2021/10/22 09:38:50;;;;;;;;;;;20.70;51.60;;;;;;494164;239;1103;-46
2021/10/22 09:40:51;;;;;;;;;;;20.60;51.70;;;;;;493674;239;1381;-46
2021/10/22 09:42:52;;;;;;;;;;;20.70;51.70;;;;;;494131;239;1156;-46
2021/10/22 09:44:53;;;;;;;;;;;20.70;51.70;;;;;;494666;239;2179;-46
2021/10/22 09:46:56;;;;;;;;;;;20.60;51.60;;;;;;494406;239;1126;-46
2021/10/22 09:48:57;;;;;;;;;;;20.60;51.70;;;;;;493845;239;1284;-46
2021/10/22 09:50:58;;;;;;;;;;;20.70;51.70;;;;;;493656;239;1137;-46
2021/10/22 09:53:00;;;;;;;;;;;20.70;51.70;;;;;;493615;239;1237;-46
2021/10/22 09:55:01;;;;;;;;;;;20.70;51.70;;;;;;493710;239;1222;-46
2021/10/22 09:57:04;;;;;;;;;;;20.70;51.70;;;;;;493805;239;1177;-46
2021/10/22 09:59:04;;;;;;;;;;;20.70;51.60;;;;;;493925;241;1427;-46
2021/10/22 10:01:05;;;;;;;;;;;20.70;51.70;;;;;;493971;239;1423;-46
2021/10/22 10:03:07;;;;;;;;;;;20.60;51.70;;;;;;494262;239;954;-46
2021/10/22 10:05:08;;;;;;;;;;;20.60;51.80;;;;;;494644;239;2185;-45
2021/10/22 10:07:09;;;;;;;;;;;20.60;51.70;;;;;;494551;239;1261;-46
2021/10/22 10:09:11;;;;;;;;;;;20.70;51.70;;;;;;493817;239;1220;-46
2021/10/22 10:11:12;;;;;;;;;;;20.60;51.70;;;;;;493859;239;1256;-47
2021/10/22 10:13:13;;;;;;;;;;;20.60;51.70;;;;;;494185;239;1049;-47
2021/10/22 10:15:15;;;;;;;;;;;20.60;51.70;;;;;;493884;239;1118;-47
2021/10/22 10:17:16;;;;;;;;;;;20.60;51.80;;;;;;493650;239;1290;-47
2021/10/22 10:19:17;;;;;;;;;;;20.70;51.80;;;;;;493698;239;1249;-47
2021/10/22 10:21:21;;;;;;;;;;;20.70;51.70;;;;;;493675;239;1310;-47
2021/10/22 10:23:20;;;;;;;;;;;20.70;51.80;;;;;;493715;239;2118;-47
2021/10/22 10:25:22;;;;;;;;;;;20.60;51.70;;;;;;493871;239;2239;-47
2021/10/22 10:27:24;;;;;;;;;;;20.60;51.70;;;;;;494118;239;2263;-47
2021/10/22 10:29:24;;;;;;;;;;;20.60;51.70;;;;;;494140;241;2126;-46
2021/10/22 10:31:27;;;;;;;;;;;20.70;51.70;;;;;;494004;239;1352;-47
2021/10/22 10:33:27;;;;;;;;;;;20.70;51.70;;;;;;493927;239;1874;-47
2021/10/22 10:35:28;;;;;;;;;;;20.70;51.70;;;;;;494003;239;1154;-47
2021/10/22 10:37:30;;;;;;;;;;;20.70;51.60;;;;;;494209;239;1234;-47
2021/10/22 10:39:31;;;;;;;;;;;20.70;51.60;;;;;;493909;239;1334;-46
2021/10/22 10:41:32;;;;;;;;;;;20.70;51.70;;;;;;493891;239;1381;-47
2021/10/22 10:43:35;;;;;;;;;;;20.70;51.60;;;;;;494296;239;1704;-46
2021/10/22 10:45:36;;;;;;;;;;;20.70;51.60;;;;;;494189;241;2187;-46
2021/10/22 10:47:36;;;;;;;;;;;20.70;51.70;;;;;;494600;241;1263;-46
2021/10/22 10:49:37;;;;;;;;;;;20.60;51.70;;;;;;494723;239;860;-46
2021/10/22 10:51:40;;;;;;;;;;;20.60;51.70;;;;;;494700;239;1219;-46
2021/10/22 10:53:40;;;;;;;;;;;20.70;51.70;;;;;;494287;239;3212;-47
2021/10/22 10:55:41;;;;;;;;;;;20.70;51.60;;;;;;494327;239;1311;-47
2021/10/22 10:57:43;;;;;;;;;;;20.70;51.70;;;;;;494678;239;1323;-46
2021/10/22 10:59:44;;;;;;;;;;;20.70;51.70;;;;;;494236;239;841;-47
2021/10/22 11:01:45;;;;;;;;;;;20.70;51.70;;;;;;494161;239;1114;-46
2021/10/22 11:03:47;;;;;;;;;;;20.70;51.70;;;;;;494656;239;863;-47
2021/10/22 11:05:49;;;;;;;;;;;20.60;51.60;;;;;;494674;239;2170;-46
2021/10/22 11:07:49;;;;;;;;;;;20.70;51.70;;;;;;494169;239;2317;-47
2021/10/22 11:09:52;;;;;;;;;;;20.70;51.70;;;;;;494210;239;1022;-47
2021/10/22 11:11:52;;;;;;;;;;;20.70;51.70;;;;;;494090;241;2148;-42
2021/10/22 11:13:53;;;;;;;;;;;20.70;51.60;;;;;;494650;239;903;-47
2021/10/22 11:15:55;;;;;;;;;;;20.70;51.70;;;;;;494623;239;1167;-47
2021/10/22 11:17:56;;;;;;;;;;;20.70;51.60;;;;;;494032;239;1124;-47
2021/10/22 11:20:00;;;;;;;;;;;20.70;51.60;;;;;;493962;239;1217;-47
2021/10/22 11:22:01;;;;;;;;;;;20.70;51.60;;;;;;493879;241;2063;-47
2021/10/22 11:24:00;;;;;;;;;;;20.70;51.60;;;;;;493559;241;1846;-47
2021/10/22 11:26:02;;;;;;;;;;;20.70;51.50;;;;;;494015;239;2187;-47
2021/10/22 11:28:09;;;;;;;;;;;20.70;51.60;;;;;;493857;239;1272;-47
2021/10/22 11:30:04;;;;;;;;;;;20.70;51.60;;;;;;493450;241;2391;-46
2021/10/22 11:32:09;;;;;;;;;;;20.70;51.70;;;;;;493801;239;1284;-47
2021/10/22 11:34:07;;;;;;;;;;;20.60;51.80;;;;;;493438;241;2062;-47
2021/10/22 11:36:08;;;;;;;;;;;20.60;51.70;;;;;;493599;239;1306;-47
2021/10/22 11:38:09;;;;;;;;;;;20.70;51.70;;;;;;493711;239;1256;-46
2021/10/22 11:40:14;;;;;;;;;;;20.70;51.70;;;;;;493741;239;1248;-47
2021/10/22 11:42:12;;;;;;;;;;;20.70;51.70;;;;;;493658;241;2299;-47
2021/10/22 11:44:14;;;;;;;;;;;20.70;51.60;;;;;;493699;239;1100;-47
2021/10/22 11:46:15;;;;;;;;;;;20.70;51.50;;;;;;493706;239;2111;-46
2021/10/22 11:48:16;;;;;;;;;;;20.70;51.70;;;;;;493678;239;1170;-46
2021/10/22 11:50:21;;;;;;;;;;;20.70;51.70;;;;;;493649;239;1128;-47
2021/10/22 11:52:22;;;;;;;;;;;20.70;51.70;;;;;;493908;241;2157;-47
2021/10/22 11:54:23;;;;;;;;;;;20.60;51.70;;;;;;493767;239;1083;-47
2021/10/22 11:56:24;;;;;;;;;;;20.70;51.70;;;;;;493592;239;1229;-47
2021/10/22 11:58:25;;;;;;;;;;;20.70;51.60;;;;;;493596;239;1107;-47
2021/10/22 12:00:27;;;;;;;;;;;20.60;51.70;;;;;;493509;239;1256;-47
2021/10/22 12:02:28;;;;;;;;;;;20.70;51.60;;;;;;493728;239;1231;-47